createdAt,value
2022-08-03T00:00:10.157Z,1.80
2022-08-03T00:00:21.641Z,1.70
2022-08-03T00:00:33.090Z,1.23
2022-08-03T00:00:44.546Z,1.33
2022-08-03T00:00:56.284Z,1.33
2022-08-03T00:01:07.710Z,1.48
2022-08-03T00:01:19.634Z,1.80
2022-08-03T00:01:31.102Z,2.20
2022-08-03T00:01:42.777Z,2.22
2022-08-03T00:01:54.261Z,2.30
2022-08-03T00:02:05.672Z,2.03
2022-08-03T00:02:19.936Z,1.80
2022-08-03T00:02:31.472Z,1.67
2022-08-03T00:02:42.917Z,1.88
2022-08-03T00:02:54.392Z,1.98
2022-08-03T00:03:06.051Z,1.77
2022-08-03T00:03:17.594Z,1.73
2022-08-03T00:03:29.076Z,1.30
2022-08-03T00:03:40.488Z,1.17
2022-08-03T00:03:55.048Z,1.35
2022-08-03T00:04:07.982Z,1.40
2022-08-03T00:04:19.408Z,1.45
2022-08-03T00:04:33.613Z,1.60
2022-08-03T00:04:45.965Z,1.65
2022-08-03T00:04:57.411Z,1.50
2022-08-03T00:05:09.003Z,1.58
2022-08-03T00:05:20.550Z,1.45
2022-08-03T00:05:32.287Z,1.40
2022-08-03T00:06:04.785Z,1.40
2022-08-03T00:06:15.111Z,2.00
2022-08-03T00:06:26.611Z,1.80
2022-08-03T00:06:38.181Z,2.10
2022-08-03T00:06:49.561Z,2.10
2022-08-03T00:07:00.972Z,2.22
2022-08-03T00:07:12.391Z,1.73
2022-08-03T00:07:23.795Z,1.60
2022-08-03T00:07:35.336Z,1.52
2022-08-03T00:07:46.753Z,1.50
2022-08-03T00:08:01.383Z,1.27
2022-08-03T00:08:13.077Z,1.10
2022-08-03T00:08:24.481Z,1.20
2022-08-03T00:08:40.088Z,1.25
2022-08-03T00:08:52.094Z,1.15
2022-08-03T00:09:04.992Z,1.10
2022-08-03T00:09:17.109Z,1.17
2022-08-03T00:09:28.519Z,1.20
2022-08-03T00:09:47.352Z,1.20
2022-08-03T00:09:58.745Z,1.20
2022-08-03T00:10:10.478Z,1.20
2022-08-03T00:10:21.873Z,1.23
2022-08-03T00:10:33.277Z,1.42
2022-08-03T00:10:44.812Z,1.50
2022-08-03T00:10:56.268Z,1.40
2022-08-03T00:11:07.934Z,1.33
2022-08-03T00:11:19.380Z,1.48
2022-08-03T00:11:30.828Z,1.65
2022-08-03T00:11:42.285Z,1.65
2022-08-03T00:11:53.679Z,1.85
2022-08-03T00:12:05.443Z,1.73
2022-08-03T00:12:18.013Z,1.50
2022-08-03T00:12:29.683Z,1.30
2022-08-03T00:12:41.093Z,1.10
2022-08-03T00:12:53.739Z,1.10
2022-08-03T00:13:05.274Z,1.30
2022-08-03T00:13:16.916Z,1.70
2022-08-03T00:13:28.342Z,1.70
2022-08-03T00:13:39.816Z,1.60
2022-08-03T00:13:51.271Z,1.40
2022-08-03T00:14:04.227Z,1.50
2022-08-03T00:14:15.701Z,1.55
2022-08-03T00:14:27.292Z,1.55
2022-08-03T00:14:38.738Z,1.25
2022-08-03T00:14:50.165Z,1.20
2022-08-03T00:15:01.731Z,1.20
2022-08-03T00:15:16.663Z,1.17
2022-08-03T00:15:28.431Z,1.10
2022-08-03T00:15:41.307Z,1.10
2022-08-03T00:15:52.986Z,1.10
2022-08-03T00:16:04.710Z,1.65
2022-08-03T00:16:16.496Z,1.90
2022-08-03T00:16:27.922Z,1.95
2022-08-03T00:16:39.289Z,1.60
2022-08-03T00:16:50.709Z,1.48
2022-08-03T00:17:02.194Z,1.30
2022-08-03T00:17:13.667Z,1.10
2022-08-03T00:17:25.091Z,1.33
2022-08-03T00:17:53.051Z,1.38
2022-08-03T00:18:05.327Z,1.38
2022-08-03T00:18:16.735Z,1.35
2022-08-03T00:18:28.133Z,1.40
2022-08-03T00:18:40.061Z,1.48
2022-08-03T00:18:51.675Z,1.90
2022-08-03T00:19:03.384Z,1.75
2022-08-03T00:19:14.810Z,1.52
2022-08-03T00:19:26.247Z,1.40
2022-08-03T00:19:37.663Z,1.27
2022-08-03T00:19:49.093Z,1.15
2022-08-03T00:20:00.537Z,0.90
2022-08-03T00:20:12.556Z,1.02
2022-08-03T00:20:24.342Z,1.10
2022-08-03T00:20:35.959Z,1.00
2022-08-03T00:20:47.467Z,1.00
2022-08-03T00:20:59.054Z,1.13
2022-08-03T00:21:10.545Z,1.20
2022-08-03T00:21:21.982Z,1.20
2022-08-03T00:21:33.421Z,1.10
2022-08-03T00:21:44.804Z,1.10
2022-08-03T00:21:56.270Z,1.20
2022-08-03T00:22:07.754Z,1.20
2022-08-03T00:22:19.165Z,1.20
2022-08-03T00:22:30.562Z,1.20
2022-08-03T00:22:41.952Z,1.15
2022-08-03T00:22:53.375Z,1.17
2022-08-03T00:23:04.913Z,1.20
2022-08-03T00:23:16.575Z,1.27
2022-08-03T00:23:50.780Z,1.40
2022-08-03T00:23:59.446Z,1.40
2022-08-03T00:24:10.840Z,1.27
2022-08-03T00:24:22.278Z,1.23
2022-08-03T00:24:33.673Z,1.30
2022-08-03T00:24:45.131Z,1.27
2022-08-03T00:24:56.592Z,1.50
2022-08-03T00:25:08.340Z,1.67
2022-08-03T00:25:19.783Z,1.50
2022-08-03T00:25:31.204Z,1.80
2022-08-03T00:25:42.723Z,1.80
2022-08-03T00:25:54.127Z,2.00
2022-08-03T00:26:05.591Z,2.20
2022-08-03T00:26:17.083Z,2.75
2022-08-03T00:26:28.555Z,2.38
2022-08-03T00:26:39.977Z,1.75
2022-08-03T00:26:51.727Z,1.42
2022-08-03T00:27:03.160Z,1.25
2022-08-03T00:27:16.338Z,1.48
2022-08-03T00:27:28.256Z,1.90
2022-08-03T00:27:43.973Z,1.70
2022-08-03T00:27:55.340Z,1.58
2022-08-03T00:28:08.997Z,1.80
2022-08-03T00:28:20.495Z,1.60
2022-08-03T00:28:32.037Z,1.38
2022-08-03T00:28:43.465Z,1.45
2022-08-03T00:28:55.014Z,1.48
2022-08-03T00:29:06.602Z,1.20
2022-08-03T00:29:17.997Z,1.10
2022-08-03T00:29:29.395Z,1.23
2022-08-03T00:29:57.616Z,1.33
2022-08-03T00:30:12.118Z,1.60
2022-08-03T00:30:23.595Z,1.52
2022-08-03T00:30:40.030Z,1.42
2022-08-03T00:30:53.675Z,1.40
2022-08-03T00:31:05.477Z,1.27
2022-08-03T00:31:39.800Z,1.80
2022-08-03T00:31:52.847Z,1.35
2022-08-03T00:32:11.090Z,1.30
2022-08-03T00:32:24.150Z,1.20
2022-08-03T00:32:36.388Z,1.20
2022-08-03T00:32:50.179Z,1.52
2022-08-03T00:33:02.098Z,2.03
2022-08-03T00:33:14.421Z,2.03
2022-08-03T00:33:25.984Z,1.55
2022-08-03T00:33:58.959Z,1.10
2022-08-03T00:34:11.386Z,1.95
2022-08-03T00:34:36.513Z,2.30
2022-08-03T00:34:58.489Z,1.55
2022-08-03T00:35:14.764Z,1.60
2022-08-03T00:35:50.883Z,1.48
2022-08-03T00:36:02.607Z,1.70
2022-08-03T00:36:14.044Z,1.70
2022-08-03T00:36:27.473Z,1.60
2022-08-03T00:36:39.652Z,1.27
2022-08-03T00:36:51.044Z,1.20
2022-08-03T00:37:02.514Z,1.27
2022-08-03T00:37:13.997Z,1.35
2022-08-03T00:37:41.400Z,1.10
2022-08-03T00:37:53.461Z,1.33
2022-08-03T00:38:05.191Z,1.30
2022-08-03T00:38:16.591Z,1.30
2022-08-03T00:38:27.978Z,1.20
2022-08-03T00:38:39.458Z,1.33
2022-08-03T00:38:50.848Z,1.30
2022-08-03T00:39:02.262Z,1.30
2022-08-03T00:39:13.644Z,1.10
2022-08-03T00:39:25.064Z,1.10
2022-08-03T00:39:36.444Z,1.30
2022-08-03T00:39:48.168Z,1.30
2022-08-03T00:39:59.956Z,1.23
2022-08-03T00:40:13.158Z,1.30
2022-08-03T00:40:24.642Z,1.33
2022-08-03T00:40:36.128Z,1.25
2022-08-03T00:40:47.609Z,1.23
2022-08-03T00:40:59.045Z,1.27
2022-08-03T00:41:10.457Z,1.20
2022-08-03T00:41:22.290Z,1.20
2022-08-03T00:41:33.691Z,1.25
2022-08-03T00:41:45.126Z,1.30
2022-08-03T00:41:56.517Z,1.25
2022-08-03T00:42:07.991Z,1.17
2022-08-03T00:42:19.523Z,1.20
2022-08-03T00:42:30.950Z,1.10
2022-08-03T00:42:50.323Z,1.10
2022-08-03T00:43:04.749Z,1.30
2022-08-03T00:43:16.563Z,1.38
2022-08-03T00:43:27.956Z,1.38
2022-08-03T00:43:39.387Z,1.30
2022-08-03T00:43:51.120Z,1.50
2022-08-03T00:44:02.527Z,1.58
2022-08-03T00:44:13.904Z,1.65
2022-08-03T00:44:25.306Z,1.63
2022-08-03T00:44:41.364Z,1.80
2022-08-03T00:44:53.317Z,1.90
2022-08-03T00:45:05.168Z,1.75
2022-08-03T00:45:24.704Z,1.70
2022-08-03T00:45:41.026Z,1.45
2022-08-03T00:45:52.770Z,1.40
2022-08-03T00:46:04.164Z,1.38
2022-08-03T00:46:20.822Z,1.40
2022-08-03T00:46:32.987Z,1.40
2022-08-03T00:46:44.387Z,1.35
2022-08-03T00:46:55.787Z,1.33
2022-08-03T00:47:07.813Z,1.38
2022-08-03T00:47:19.217Z,1.40
2022-08-03T00:47:30.577Z,1.40
2022-08-03T00:47:42.019Z,1.40
2022-08-03T00:47:54.403Z,1.45
2022-08-03T00:48:30.158Z,1.17
2022-08-03T00:48:40.063Z,1.13
2022-08-03T00:48:52.328Z,1.13
2022-08-03T00:49:04.029Z,1.20
2022-08-03T00:49:15.561Z,1.30
2022-08-03T00:49:28.049Z,1.20
2022-08-03T00:49:41.052Z,1.10
2022-08-03T00:49:52.766Z,1.00
2022-08-03T00:50:04.482Z,1.00
2022-08-03T00:50:17.550Z,1.10
2022-08-03T00:50:31.657Z,1.00
2022-08-03T00:50:43.248Z,0.98
2022-08-03T00:50:54.828Z,0.93
2022-08-03T00:51:06.827Z,1.00
2022-08-03T00:51:19.758Z,1.05
2022-08-03T00:51:32.691Z,1.17
2022-08-03T00:51:44.190Z,1.10
2022-08-03T00:51:56.214Z,1.10
2022-08-03T00:52:11.468Z,1.08
2022-08-03T00:52:22.985Z,1.40
2022-08-03T00:52:35.137Z,1.40
2022-08-03T00:52:47.256Z,1.25
2022-08-03T00:53:00.275Z,1.40
2022-08-03T00:53:12.368Z,1.40
2022-08-03T00:53:24.713Z,1.50
2022-08-03T00:53:37.134Z,1.60
2022-08-03T00:53:49.726Z,1.45
2022-08-03T00:54:01.170Z,1.10
2022-08-03T00:54:18.067Z,1.08
2022-08-03T00:54:30.158Z,1.10
2022-08-03T00:54:41.916Z,1.15
2022-08-03T00:54:53.337Z,1.08
2022-08-03T00:55:05.365Z,1.27
2022-08-03T00:55:17.048Z,1.23
2022-08-03T00:55:29.406Z,1.25
2022-08-03T00:55:42.334Z,1.02
2022-08-03T00:55:53.937Z,1.10
2022-08-03T00:56:05.432Z,1.13
2022-08-03T00:56:17.653Z,1.10
2022-08-03T00:56:29.083Z,1.00
2022-08-03T00:56:59.281Z,1.10
2022-08-03T00:57:11.790Z,1.20
2022-08-03T00:57:23.253Z,1.20
2022-08-03T00:57:35.075Z,1.10
2022-08-03T00:57:46.676Z,1.17
2022-08-03T00:57:58.654Z,1.20
2022-08-03T00:58:10.279Z,1.30
2022-08-03T00:58:21.756Z,1.30
2022-08-03T00:58:33.303Z,1.45
2022-08-03T00:58:46.322Z,1.30
2022-08-03T00:58:58.954Z,1.15
2022-08-03T00:59:10.616Z,1.20
2022-08-03T00:59:22.614Z,1.13
2022-08-03T00:59:34.049Z,1.30
2022-08-03T01:00:05.314Z,1.50
2022-08-03T01:00:19.759Z,1.30
2022-08-03T01:00:32.198Z,1.23
2022-08-03T01:00:43.772Z,1.15
2022-08-03T01:00:55.226Z,0.98
2022-08-03T01:01:06.777Z,1.10
2022-08-03T01:01:18.262Z,1.23
2022-08-03T01:01:32.402Z,1.42
2022-08-03T01:01:44.408Z,1.20
2022-08-03T01:01:56.025Z,1.30
2022-08-03T01:02:08.139Z,1.35
2022-08-03T01:02:19.546Z,1.50
2022-08-03T01:02:31.115Z,1.23
2022-08-03T01:02:42.624Z,1.20
2022-08-03T01:02:54.715Z,1.20
2022-08-03T01:03:08.180Z,1.30
2022-08-03T01:03:19.661Z,1.30
2022-08-03T01:03:31.041Z,1.30
2022-08-03T01:03:42.784Z,1.42
2022-08-03T01:03:54.176Z,1.30
2022-08-03T01:04:05.549Z,1.10
2022-08-03T01:04:17.022Z,0.98
2022-08-03T01:04:28.408Z,1.17
2022-08-03T01:04:39.811Z,1.30
2022-08-03T01:04:51.227Z,1.45
2022-08-03T01:05:04.720Z,1.33
2022-08-03T01:05:16.333Z,1.35
2022-08-03T01:05:28.328Z,1.27
2022-08-03T01:05:45.600Z,1.30
2022-08-03T01:06:18.455Z,1.40
2022-08-03T01:07:10.756Z,1.80
2022-08-03T01:07:44.915Z,1.17
2022-08-03T01:08:08.231Z,1.30
2022-08-03T01:08:27.866Z,1.30
2022-08-03T01:08:57.761Z,1.33
2022-08-03T01:09:33.401Z,1.00
2022-08-03T01:10:06.109Z,1.27
2022-08-03T01:10:42.440Z,1.20
2022-08-03T01:11:23.999Z,1.10
2022-08-03T01:12:01.466Z,1.10
2022-08-03T01:12:16.074Z,1.15
2022-08-03T01:12:27.641Z,1.23
2022-08-03T01:13:02.717Z,1.25
2022-08-03T01:14:03.513Z,1.08
2022-08-03T01:14:19.235Z,1.17
2022-08-03T01:14:42.069Z,1.13
2022-08-03T01:15:08.952Z,1.25
2022-08-03T01:15:39.048Z,1.10
2022-08-03T01:16:02.584Z,1.00
2022-08-03T01:16:45.461Z,1.30
2022-08-03T01:17:08.166Z,1.08
2022-08-03T01:17:25.758Z,1.50
2022-08-03T01:17:49.279Z,1.38
2022-08-03T01:18:11.902Z,1.42
2022-08-03T01:18:35.691Z,1.30
2022-08-03T01:18:55.278Z,0.93
2022-08-03T01:19:24.881Z,1.17
2022-08-03T01:19:53.788Z,1.23
2022-08-03T01:20:11.585Z,1.17
2022-08-03T01:20:25.130Z,1.17
2022-08-03T01:20:40.363Z,1.20
2022-08-03T01:20:56.677Z,1.50
2022-08-03T01:21:26.044Z,1.23
2022-08-03T01:22:07.614Z,1.30
2022-08-03T01:22:37.053Z,1.35
2022-08-03T01:22:57.715Z,1.20
2022-08-03T01:23:34.449Z,1.27
2022-08-03T01:23:56.187Z,1.40
2022-08-03T01:24:29.301Z,1.35
2022-08-03T01:25:01.308Z,1.17
2022-08-03T01:25:57.697Z,1.30
2022-08-03T01:26:49.009Z,1.40
2022-08-03T01:27:17.113Z,1.60
2022-08-03T01:27:56.800Z,1.30
2022-08-03T01:28:14.088Z,1.20
2022-08-03T01:28:31.457Z,1.20
2022-08-03T01:29:02.305Z,1.20
2022-08-03T01:29:35.243Z,1.30
2022-08-03T01:29:57.431Z,1.20
2022-08-03T01:30:11.608Z,1.17
2022-08-03T01:30:28.776Z,1.00
2022-08-03T01:30:43.704Z,1.00
2022-08-03T01:31:01.394Z,1.15
2022-08-03T01:31:14.860Z,1.08
2022-08-03T01:31:32.490Z,1.02
2022-08-03T01:32:53.392Z,1.20
2022-08-03T01:33:00.928Z,1.20
2022-08-03T01:33:17.799Z,1.13
2022-08-03T01:33:36.569Z,1.10
2022-08-03T01:33:56.623Z,1.13
2022-08-03T01:34:14.653Z,1.30
2022-08-03T01:34:32.288Z,1.13
2022-08-03T01:34:48.415Z,1.10
2022-08-03T01:35:04.690Z,1.00
2022-08-03T01:35:22.129Z,1.00
2022-08-03T01:35:39.279Z,1.20
2022-08-03T01:35:58.680Z,1.20
2022-08-03T01:36:14.560Z,1.33
2022-08-03T01:36:53.735Z,1.10
2022-08-03T01:37:09.056Z,1.10
2022-08-03T01:37:26.420Z,0.90
2022-08-03T01:37:43.786Z,1.00
2022-08-03T01:38:01.317Z,1.20
2022-08-03T01:38:25.940Z,0.93
2022-08-03T01:38:43.404Z,1.17
2022-08-03T01:38:58.672Z,1.40
2022-08-03T01:39:11.176Z,1.20
2022-08-03T01:39:28.777Z,1.23
2022-08-03T01:39:42.904Z,1.40
2022-08-03T01:39:57.229Z,1.33
2022-08-03T01:40:10.724Z,1.27
2022-08-03T01:40:24.276Z,1.40
2022-08-03T01:40:39.351Z,1.60
2022-08-03T01:40:53.588Z,1.30
2022-08-03T01:41:09.243Z,1.05
2022-08-03T01:41:29.051Z,1.00
2022-08-03T01:41:47.821Z,1.13
2022-08-03T01:42:03.984Z,1.10
2022-08-03T01:42:17.855Z,1.30
2022-08-03T01:42:32.533Z,1.25
2022-08-03T01:42:46.245Z,1.10
2022-08-03T01:43:01.024Z,1.10
2022-08-03T01:44:26.792Z,1.00
2022-08-03T01:44:28.231Z,1.15
2022-08-03T01:44:29.665Z,1.05
2022-08-03T01:44:45.005Z,1.15
2022-08-03T01:44:58.544Z,1.17
2022-08-03T01:45:12.751Z,1.05
2022-08-03T01:45:24.843Z,1.20
2022-08-03T01:45:37.373Z,1.20
2022-08-03T01:45:49.951Z,1.10
2022-08-03T01:46:38.795Z,1.10
2022-08-03T01:46:47.927Z,1.20
2022-08-03T01:47:02.378Z,1.20
2022-08-03T01:47:19.822Z,1.13
2022-08-03T01:47:32.649Z,1.30
2022-08-03T01:47:46.521Z,1.33
2022-08-03T01:47:59.306Z,1.10
2022-08-03T01:48:15.713Z,1.27
2022-08-03T01:48:27.902Z,1.30
2022-08-03T01:48:43.069Z,1.07
2022-08-03T01:48:56.077Z,1.02
2022-08-03T01:49:10.797Z,1.10
2022-08-03T01:49:23.063Z,1.02
2022-08-03T01:49:39.860Z,1.10
2022-08-03T01:49:52.624Z,1.20
2022-08-03T01:50:05.654Z,1.30
2022-08-03T01:50:21.049Z,1.30
2022-08-03T01:50:32.945Z,1.10
2022-08-03T01:50:46.827Z,1.00
2022-08-03T01:51:00.099Z,1.20
2022-08-03T01:51:12.187Z,1.30
2022-08-03T01:51:23.683Z,1.08
2022-08-03T01:52:03.655Z,1.10
2022-08-03T01:52:19.724Z,1.20
2022-08-03T01:52:33.170Z,1.30
2022-08-03T01:52:46.167Z,1.13
2022-08-03T01:52:58.824Z,1.17
2022-08-03T01:53:13.228Z,1.13
2022-08-03T01:53:25.601Z,1.15
2022-08-03T01:53:39.849Z,1.30
2022-08-03T01:53:53.047Z,1.10
2022-08-03T01:54:07.811Z,0.93
2022-08-03T01:54:20.583Z,1.10
2022-08-03T01:54:37.608Z,1.17
2022-08-03T01:54:51.924Z,1.10
2022-08-03T01:55:05.294Z,1.10
2022-08-03T01:55:19.892Z,1.20
2022-08-03T01:55:32.652Z,1.05
2022-08-03T01:55:49.635Z,1.10
2022-08-03T01:56:03.698Z,1.30
2022-08-03T01:56:17.483Z,1.25
2022-08-03T01:56:31.405Z,1.00
2022-08-03T01:56:44.234Z,1.00
2022-08-03T01:56:58.817Z,1.10
2022-08-03T01:57:11.340Z,1.08
2022-08-03T01:57:25.292Z,1.00
2022-08-03T01:58:04.577Z,1.10
2022-08-03T01:58:14.898Z,1.30
2022-08-03T01:58:28.287Z,1.30
2022-08-03T01:58:41.433Z,1.08
2022-08-03T01:58:54.526Z,1.00
2022-08-03T01:59:08.352Z,1.10
2022-08-03T01:59:21.253Z,1.35
2022-08-03T01:59:45.036Z,1.17
2022-08-03T01:59:59.912Z,0.93
2022-08-03T02:00:12.104Z,1.00
2022-08-03T02:00:25.290Z,1.10
2022-08-03T02:00:38.439Z,1.10
2022-08-03T02:00:51.269Z,1.10
2022-08-03T02:01:10.024Z,1.00
2022-08-03T02:01:23.951Z,1.00
2022-08-03T02:02:28.717Z,1.20
2022-08-03T02:02:32.104Z,1.20
2022-08-03T02:02:49.218Z,0.90
2022-08-03T02:03:02.399Z,0.98
2022-08-03T02:03:15.431Z,1.02
2022-08-03T02:03:29.643Z,1.10
2022-08-03T02:03:59.831Z,1.10
2022-08-03T02:04:14.591Z,1.20
2022-08-03T02:04:28.109Z,1.20
2022-08-03T02:04:41.093Z,1.13
2022-08-03T02:04:55.479Z,1.08
2022-08-03T02:05:10.871Z,1.10
2022-08-03T02:05:24.718Z,1.10
2022-08-03T02:05:37.005Z,1.13
2022-08-03T02:05:54.081Z,1.20
2022-08-03T02:07:00.464Z,1.10
2022-08-03T02:07:02.356Z,1.00
2022-08-03T02:07:15.883Z,1.00
2022-08-03T02:07:29.720Z,1.10
2022-08-03T02:07:43.253Z,0.90
2022-08-03T02:07:56.019Z,1.15
2022-08-03T02:08:10.497Z,1.38
2022-08-03T02:08:25.486Z,1.25
2022-08-03T02:08:39.130Z,0.95
2022-08-03T02:08:53.550Z,1.00
2022-08-03T02:09:06.311Z,1.10
2022-08-03T02:09:20.897Z,1.23
2022-08-03T02:09:33.759Z,1.10
2022-08-03T02:09:48.769Z,0.90
2022-08-03T02:10:01.552Z,0.80
2022-08-03T02:10:15.568Z,0.93
2022-08-03T02:10:34.478Z,1.25
2022-08-03T02:10:48.480Z,1.20
2022-08-03T02:11:01.953Z,1.05
2022-08-03T02:11:13.593Z,1.25
2022-08-03T02:11:25.265Z,1.38
2022-08-03T02:11:38.134Z,1.30
2022-08-03T02:11:51.909Z,0.98
2022-08-03T02:12:04.396Z,1.00
2022-08-03T02:12:16.487Z,1.02
2022-08-03T02:12:29.801Z,1.10
2022-08-03T02:12:45.968Z,1.10
2022-08-03T02:13:01.232Z,1.08
2022-08-03T02:13:13.651Z,1.00
2022-08-03T02:13:26.710Z,1.05
2022-08-03T02:13:38.850Z,1.15
2022-08-03T02:13:51.525Z,1.25
2022-08-03T02:14:05.874Z,1.30
2022-08-03T02:14:19.264Z,1.30
2022-08-03T02:14:31.599Z,1.20
2022-08-03T02:14:45.496Z,1.17
2022-08-03T02:14:59.967Z,1.30
2022-08-03T02:15:12.924Z,1.10
2022-08-03T02:15:27.076Z,1.00
2022-08-03T02:15:39.007Z,1.00
2022-08-03T02:15:51.808Z,1.10
2022-08-03T02:16:04.876Z,1.00
2022-08-03T02:16:18.124Z,0.95
2022-08-03T02:16:32.685Z,1.02
2022-08-03T02:16:45.676Z,1.05
2022-08-03T02:16:57.870Z,1.00
2022-08-03T02:17:10.332Z,0.95
2022-08-03T02:17:39.102Z,1.00
2022-08-03T02:17:53.362Z,1.00
2022-08-03T02:18:07.441Z,0.90
2022-08-03T02:18:20.793Z,1.00
2022-08-03T02:18:33.925Z,1.10
2022-08-03T02:18:48.019Z,1.02
2022-08-03T02:19:03.040Z,0.90
2022-08-03T02:19:16.578Z,0.93
2022-08-03T02:19:32.569Z,0.90
2022-08-03T02:19:48.504Z,1.00
2022-08-03T02:20:02.056Z,1.05
2022-08-03T02:20:15.064Z,1.05
2022-08-03T02:20:28.601Z,1.08
2022-08-03T02:20:42.346Z,1.00
2022-08-03T02:20:54.739Z,1.05
2022-08-03T02:21:10.890Z,1.10
2022-08-03T02:21:56.926Z,1.17
2022-08-03T02:21:57.408Z,1.02
2022-08-03T02:22:15.327Z,1.15
2022-08-03T02:22:27.853Z,1.00
2022-08-03T02:22:40.837Z,0.82
2022-08-03T02:22:52.409Z,1.02
2022-08-03T02:23:03.966Z,1.20
2022-08-03T02:23:16.407Z,1.17
2022-08-03T02:23:27.933Z,0.93
2022-08-03T02:23:40.602Z,0.80
2022-08-03T02:23:52.121Z,1.00
2022-08-03T02:24:05.337Z,1.00
2022-08-03T02:24:16.838Z,1.10
2022-08-03T02:24:29.159Z,1.00
2022-08-03T02:24:40.945Z,1.20
2022-08-03T02:24:52.411Z,1.08
2022-08-03T02:25:04.086Z,1.10
2022-08-03T02:25:16.287Z,0.98
2022-08-03T02:25:28.678Z,0.90
2022-08-03T02:25:45.395Z,1.10
2022-08-03T02:26:04.658Z,1.17
2022-08-03T02:26:20.101Z,0.90
2022-08-03T02:26:32.483Z,0.95
2022-08-03T02:26:45.512Z,1.00
2022-08-03T02:26:58.613Z,1.10
2022-08-03T02:27:25.661Z,1.02
2022-08-03T02:27:43.694Z,1.02
2022-08-03T02:28:06.382Z,1.20
2022-08-03T02:28:21.053Z,1.00
2022-08-03T02:28:37.276Z,0.90
2022-08-03T02:28:52.967Z,1.05
2022-08-03T02:29:11.209Z,1.20
2022-08-03T02:29:39.887Z,1.13
2022-08-03T02:30:03.294Z,1.02
2022-08-03T02:30:15.135Z,0.82
2022-08-03T02:30:40.681Z,0.93
2022-08-03T02:30:54.774Z,0.98
2022-08-03T02:31:13.058Z,1.02
2022-08-03T02:31:29.073Z,0.93
2022-08-03T02:31:43.447Z,1.00
2022-08-03T02:32:00.040Z,1.20
2022-08-03T02:32:17.223Z,1.10
2022-08-03T02:32:32.547Z,1.00
2022-08-03T02:32:51.487Z,0.90
2022-08-03T02:33:03.755Z,0.90
2022-08-03T02:33:25.002Z,0.90
2022-08-03T02:33:41.196Z,1.00
2022-08-03T02:33:56.210Z,0.95
2022-08-03T02:34:13.296Z,0.93
2022-08-03T02:34:28.102Z,1.00
2022-08-03T02:34:42.026Z,1.00
2022-08-03T02:34:55.875Z,1.00
2022-08-03T02:35:11.643Z,1.00
2022-08-03T02:35:26.147Z,1.08
2022-08-03T02:35:40.446Z,1.13
2022-08-03T02:35:54.096Z,1.00
2022-08-03T02:36:06.602Z,0.90
2022-08-03T02:36:28.342Z,1.00
2022-08-03T02:36:46.991Z,0.93
2022-08-03T02:36:59.368Z,0.80
2022-08-03T02:37:12.331Z,0.75
2022-08-03T02:37:27.319Z,0.85
2022-08-03T02:37:49.549Z,1.00
2022-08-03T02:38:03.885Z,0.93
2022-08-03T02:38:19.225Z,0.80
2022-08-03T02:38:36.545Z,0.90
2022-08-03T02:38:53.637Z,1.05
2022-08-03T02:39:07.313Z,1.10
2022-08-03T02:39:21.832Z,1.15
2022-08-03T02:39:36.690Z,1.38
2022-08-03T02:39:49.992Z,1.30
2022-08-03T02:40:04.191Z,1.10
2022-08-03T02:40:19.044Z,1.00
2022-08-03T02:40:56.872Z,1.00
2022-08-03T02:41:15.080Z,0.77
2022-08-03T02:41:38.452Z,1.20
2022-08-03T02:41:57.727Z,1.00
2022-08-03T02:42:12.163Z,1.13
2022-08-03T02:42:26.949Z,1.10
2022-08-03T02:42:40.196Z,1.05
2022-08-03T02:42:55.502Z,1.00
2022-08-03T02:43:16.853Z,1.25
2022-08-03T02:43:57.639Z,1.40
2022-08-03T02:44:07.544Z,1.20
2022-08-03T02:44:27.406Z,1.45
2022-08-03T02:44:40.244Z,1.08
2022-08-03T02:44:55.299Z,1.00
2022-08-03T02:45:09.674Z,1.00
2022-08-03T02:45:26.184Z,1.00
2022-08-03T02:45:45.637Z,1.00
2022-08-03T02:45:57.301Z,1.00
2022-08-03T02:46:10.452Z,1.08
2022-08-03T02:46:26.515Z,1.10
2022-08-03T02:46:41.521Z,1.08
2022-08-03T02:47:02.005Z,0.88
2022-08-03T02:47:13.801Z,1.08
2022-08-03T02:47:28.877Z,1.02
2022-08-03T02:48:03.699Z,1.10
2022-08-03T02:48:21.986Z,1.30
2022-08-03T02:48:37.122Z,1.30
2022-08-03T02:48:51.509Z,1.10
2022-08-03T02:49:40.595Z,0.98
2022-08-03T02:49:50.591Z,1.00
2022-08-03T02:50:04.599Z,1.20
2022-08-03T02:50:18.237Z,1.23
2022-08-03T02:50:31.771Z,1.10
2022-08-03T02:50:45.143Z,1.20
2022-08-03T02:50:59.779Z,1.20
2022-08-03T02:51:11.508Z,1.00
2022-08-03T02:51:23.755Z,0.95
2022-08-03T02:51:37.504Z,0.90
2022-08-03T02:51:52.373Z,1.10
2022-08-03T02:52:08.481Z,1.20
2022-08-03T02:52:29.728Z,1.02
2022-08-03T02:52:42.644Z,1.08
2022-08-03T02:52:56.080Z,1.20
2022-08-03T02:53:09.867Z,1.15
2022-08-03T02:53:22.977Z,1.05
2022-08-03T02:53:36.129Z,1.10
2022-08-03T02:53:48.459Z,1.10
2022-08-03T02:54:02.932Z,1.10
2022-08-03T02:54:18.021Z,1.07
2022-08-03T02:54:33.013Z,0.95
2022-08-03T02:54:48.441Z,0.90
2022-08-03T02:55:02.391Z,0.98
2022-08-03T02:55:15.952Z,1.10
2022-08-03T02:55:28.305Z,1.08
2022-08-03T02:55:43.267Z,0.90
2022-08-03T02:55:59.397Z,1.00
2022-08-03T02:56:12.648Z,1.42
2022-08-03T02:56:25.671Z,1.38
2022-08-03T02:56:37.885Z,1.40
2022-08-03T02:56:50.447Z,1.27
2022-08-03T02:57:03.167Z,1.10
2022-08-03T02:57:15.508Z,1.10
2022-08-03T02:57:29.791Z,1.00
2022-08-03T02:57:43.635Z,1.00
2022-08-03T02:57:55.968Z,1.10
2022-08-03T02:58:08.330Z,1.05
2022-08-03T02:58:21.023Z,0.98
2022-08-03T02:58:34.032Z,1.00
2022-08-03T02:58:48.227Z,1.05
2022-08-03T02:59:00.790Z,1.15
2022-08-03T02:59:13.961Z,1.27
2022-08-03T02:59:28.141Z,0.98
2022-08-03T02:59:42.206Z,0.77
2022-08-03T02:59:55.192Z,1.13
2022-08-03T03:00:07.945Z,1.23
2022-08-03T03:00:27.660Z,1.08
2022-08-03T03:00:41.275Z,1.05
2022-08-03T03:00:54.157Z,1.02
2022-08-03T03:01:06.866Z,0.90
2022-08-03T03:01:24.410Z,0.80
2022-08-03T03:01:36.352Z,1.02
2022-08-03T03:01:48.580Z,1.10
2022-08-03T03:02:02.186Z,1.30
2022-08-03T03:02:15.573Z,1.20
2022-08-03T03:02:28.899Z,1.10
2022-08-03T03:02:44.602Z,1.13
2022-08-03T03:03:01.377Z,1.15
2022-08-03T03:03:13.978Z,0.90
2022-08-03T03:03:26.474Z,0.90
2022-08-03T03:03:44.859Z,1.02
2022-08-03T03:03:57.684Z,1.00
2022-08-03T03:04:11.791Z,1.17
2022-08-03T03:04:30.007Z,1.10
2022-08-03T03:05:50.792Z,1.00
2022-08-03T03:05:55.074Z,1.10
2022-08-03T03:05:56.803Z,1.20
2022-08-03T03:06:10.367Z,1.20
2022-08-03T03:06:23.223Z,1.10
2022-08-03T03:06:36.958Z,0.93
2022-08-03T03:06:50.447Z,1.00
2022-08-03T03:07:03.688Z,1.05
2022-08-03T03:07:17.472Z,1.13
2022-08-03T03:07:29.880Z,1.10
2022-08-03T03:07:51.392Z,1.10
2022-08-03T03:08:05.403Z,1.10
2022-08-03T03:08:29.809Z,0.93
2022-08-03T03:08:41.429Z,1.13
2022-08-03T03:08:59.313Z,1.25
2022-08-03T03:09:11.292Z,1.10
2022-08-03T03:09:23.327Z,1.20
2022-08-03T03:09:41.975Z,1.17
2022-08-03T03:09:55.046Z,0.93
2022-08-03T03:10:07.911Z,0.80
2022-08-03T03:10:23.889Z,0.90
2022-08-03T03:10:37.252Z,1.02
2022-08-03T03:10:49.333Z,1.00
2022-08-03T03:11:08.636Z,1.08
2022-08-03T03:11:21.935Z,1.00
2022-08-03T03:11:37.999Z,1.00
2022-08-03T03:11:51.406Z,1.00
2022-08-03T03:12:03.157Z,1.00
2022-08-03T03:12:16.440Z,0.90
2022-08-03T03:12:29.249Z,1.00
2022-08-03T03:12:42.521Z,1.00
2022-08-03T03:12:57.167Z,0.95
2022-08-03T03:13:10.488Z,0.73
2022-08-03T03:13:22.478Z,0.82
2022-08-03T03:13:34.064Z,1.05
2022-08-03T03:13:47.203Z,1.10
2022-08-03T03:13:59.949Z,1.00
2022-08-03T03:14:12.205Z,0.90
2022-08-03T03:14:33.219Z,0.95
2022-08-03T03:14:45.641Z,1.17
2022-08-03T03:14:57.079Z,1.20
2022-08-03T03:15:08.882Z,1.10
2022-08-03T03:15:20.403Z,0.93
2022-08-03T03:15:33.437Z,0.95
2022-08-03T03:15:45.489Z,1.00
2022-08-03T03:16:00.105Z,1.15
2022-08-03T03:16:13.674Z,1.05
2022-08-03T03:16:26.814Z,1.05
2022-08-03T03:16:40.483Z,1.20
2022-08-03T03:16:52.714Z,1.10
2022-08-03T03:17:11.387Z,0.93
2022-08-03T03:17:24.446Z,0.90
2022-08-03T03:17:37.449Z,0.90
2022-08-03T03:17:51.092Z,0.90
2022-08-03T03:18:03.189Z,0.90
2022-08-03T03:18:20.209Z,0.95
2022-08-03T03:18:35.190Z,1.05
2022-08-03T03:19:15.634Z,1.00
2022-08-03T03:19:27.651Z,1.02
2022-08-03T03:19:39.971Z,1.20
2022-08-03T03:19:52.082Z,1.20
2022-08-03T03:20:04.824Z,1.15
2022-08-03T03:20:30.217Z,1.00
2022-08-03T03:20:42.268Z,1.13
2022-08-03T03:20:54.284Z,1.00
2022-08-03T03:21:08.274Z,1.00
2022-08-03T03:21:20.863Z,1.08
2022-08-03T03:21:33.384Z,1.10
2022-08-03T03:21:46.071Z,1.00
2022-08-03T03:22:00.199Z,0.80
2022-08-03T03:22:13.109Z,0.85
2022-08-03T03:22:25.910Z,1.05
2022-08-03T03:22:38.491Z,1.25
2022-08-03T03:22:52.067Z,1.30
2022-08-03T03:23:03.836Z,1.10
2022-08-03T03:23:15.848Z,1.00
2022-08-03T03:23:28.652Z,0.93
2022-08-03T03:23:41.854Z,1.05
2022-08-03T03:23:54.432Z,1.02
2022-08-03T03:24:07.897Z,1.08
2022-08-03T03:24:19.947Z,0.90
2022-08-03T03:24:31.912Z,0.90
2022-08-03T03:24:44.874Z,0.95
2022-08-03T03:24:56.697Z,1.00
2022-08-03T03:25:10.360Z,1.10